Amelia, Louisiana
Current Conditions -  °F | °C
As of 9:35 AM on Friday 24 Oct 2014 (Local Time) from KPTN Reporting Station
Clear Clear  
Wind Chill: 17°   Ceiling: Unl
Heat Index: 17°   Visibility: 10mi
Dew Point: 13°   Wind: 6mph
Humidity: 77%   Direction: 30°NNE
Pressure: 30.16"   Gusts: NA
Location:  29.67°N, 91.1°W
Report Text: KPTN 241435Z AUTO 03005KT 10SM CLR 17/13 A3016 RMK AO1
Loading
Personal Weather Stations






























Interactive Weather Map
Tropical Storm Tracking
New forecast layout! Learn more

10-Day Weather Forecast

Advertisements
Track Severe Weather on mobile